Time;durP1;ratioP1;P1;durP2;ratioP2;P2;SDS_P1;SDS_P2;PMS_P1;PMS_P2;Temp;Humidity;BMP_temperature;BMP_pressure;BME280_temperature;BME280_humidity;BME280_pressure;Samples;Min_cycle;Max_cycle;Signal;HPM_P1;HPM_P2
2021/03/17 00:01:08;;;;;;;17.80;12.20;;;6.30;99.90;;;;;;5090141;28;20066;-50
2021/03/17 00:03:34;;;;;;;13.20;10.55;;;6.30;99.90;;;;;;5090566;28;20024;-52
2021/03/17 00:06:00;;;;;;;15.45;11.95;;;6.30;99.90;;;;;;5088832;28;20489;-54
2021/03/17 00:08:25;;;;;;;19.35;12.20;;;6.20;99.90;;;;;;5072423;28;20057;-50
2021/03/17 00:10:53;;;;;;;20.13;12.25;;;6.20;99.90;;;;;;5073341;28;20516;-50
2021/03/17 00:13:29;;;;;;;20.27;12.65;;;6.30;99.90;;;;;;5074899;28;20028;-49
2021/03/17 00:16:00;;;;;;;21.52;12.15;;;6.20;99.90;;;;;;5093095;28;20473;-47
2021/03/17 00:18:26;;;;;;;17.88;12.23;;;6.30;99.90;;;;;;5085451;28;20585;-49
2021/03/17 00:20:51;;;;;;;17.02;11.90;;;6.40;99.90;;;;;;5088834;28;20099;-49
2021/03/17 00:23:18;;;;;;;15.48;11.77;;;6.30;99.90;;;;;;5092718;28;20016;-51
2021/03/17 00:25:44;;;;;;;15.13;10.70;;;6.40;99.90;;;;;;5092965;28;20433;-52
2021/03/17 00:28:09;;;;;;;14.68;10.88;;;6.30;99.90;;;;;;5091606;28;20127;-48
2021/03/17 00:30:37;;;;;;;19.17;12.02;;;6.20;99.90;;;;;;5076148;28;20020;-52
2021/03/17 00:33:06;;;;;;;14.13;10.80;;;6.20;99.90;;;;;;5092635;28;20043;-51
2021/03/17 00:35:32;;;;;;;15.82;10.45;;;6.10;99.90;;;;;;5092824;28;20035;-50
2021/03/17 00:37:57;;;;;;;15.73;10.60;;;6.10;99.90;;;;;;5093242;28;20020;-48
2021/03/17 00:40:23;;;;;;;13.48;10.45;;;6.10;99.90;;;;;;5093229;28;20039;-50
2021/03/17 00:42:49;;;;;;;14.13;11.00;;;6.20;99.90;;;;;;5092811;28;20059;-50
2021/03/17 00:45:15;;;;;;;13.90;9.73;;;6.40;99.90;;;;;;5092688;28;20107;-51
2021/03/17 00:47:40;;;;;;;18.70;10.90;;;6.40;99.90;;;;;;5074537;28;20054;-50
2021/03/17 00:50:08;;;;;;;13.68;10.68;;;6.40;99.90;;;;;;5074610;28;20024;-51
2021/03/17 00:52:33;;;;;;;15.70;10.65;;;6.30;99.90;;;;;;5074234;28;20196;-49
2021/03/17 00:54:59;;;;;;;16.25;8.98;;;6.20;99.90;;;;;;5074294;28;20119;-48
2021/03/17 00:57:25;;;;;;;16.55;10.30;;;6.20;99.90;;;;;;5074326;28;20036;-48
2021/03/17 00:59:50;;;;;;;12.05;9.27;;;6.20;99.90;;;;;;5092309;28;20393;-50
2021/03/17 01:02:16;;;;;;;14.70;9.95;;;6.20;99.90;;;;;;5092323;28;20020;-51
2021/03/17 01:04:41;;;;;;;15.23;10.38;;;6.20;99.90;;;;;;5091991;28;20389;-50
2021/03/17 01:07:11;;;;;;;10.63;8.60;;;6.20;99.90;;;;;;5092168;28;20472;-51
2021/03/17 01:09:38;;;;;;;12.30;9.18;;;6.10;99.90;;;;;;5092188;28;20028;-48
2021/03/17 01:12:03;;;;;;;13.57;10.38;;;6.10;99.90;;;;;;5092184;28;20557;-50
2021/03/17 01:14:29;;;;;;;12.52;9.30;;;6.10;99.90;;;;;;5091916;28;20039;-49
2021/03/17 01:16:54;;;;;;;12.50;10.38;;;6.10;99.90;;;;;;5092259;28;20485;-50
2021/03/17 01:19:20;;;;;;;14.98;10.45;;;6.10;99.90;;;;;;5073816;28;20374;-51
2021/03/17 01:21:45;;;;;;;14.32;10.02;;;6.10;99.90;;;;;;5092017;28;20103;-52
2021/03/17 01:24:11;;;;;;;15.20;9.52;;;6.10;99.90;;;;;;5073452;28;20050;-49
2021/03/17 01:26:36;;;;;;;14.32;10.40;;;6.00;99.90;;;;;;5091959;28;20028;-50
2021/03/17 01:29:02;;;;;;;14.18;10.85;;;6.00;99.90;;;;;;5092153;28;20093;-49
2021/03/17 01:31:28;;;;;;;16.45;11.82;;;6.00;99.90;;;;;;5092059;28;20065;-49
2021/03/17 01:33:53;;;;;;;17.05;12.75;;;6.00;99.90;;;;;;5091549;28;20378;-51
2021/03/17 01:36:19;;;;;;;19.27;12.65;;;6.00;99.90;;;;;;5091782;28;20089;-48
2021/03/17 01:38:45;;;;;;;19.52;13.65;;;6.00;99.90;;;;;;5091654;28;20024;-53
2021/03/17 01:41:10;;;;;;;19.65;13.95;;;6.00;99.90;;;;;;5073573;28;20024;-52
2021/03/17 01:43:36;;;;;;;17.55;13.25;;;6.00;99.90;;;;;;5091460;28;20024;-50
2021/03/17 01:46:01;;;;;;;19.88;13.55;;;6.00;99.90;;;;;;5091609;28;20028;-51
2021/03/17 01:48:27;;;;;;;19.98;14.18;;;6.00;99.90;;;;;;5091646;28;20032;-51
2021/03/17 01:50:55;;;;;;;18.40;14.30;;;6.00;99.90;;;;;;5091523;28;20159;-48
2021/03/17 01:53:41;;;;;;;23.17;15.35;;;6.00;99.90;;;;;;5091258;28;20496;-50
2021/03/17 01:56:07;;;;;;;22.98;17.10;;;6.00;99.90;;;;;;5090666;28;20036;-48
2021/03/17 01:58:36;;;;;;;21.50;15.15;;;6.00;99.90;;;;;;5091429;28;20039;-52
2021/03/17 02:01:03;;;;;;;22.23;17.08;;;6.10;99.90;;;;;;5092261;28;20393;-50
2021/03/17 02:03:29;;;;;;;21.70;16.45;;;6.20;99.90;;;;;;5092306;28;20023;-50
2021/03/17 02:05:55;;;;;;;31.73;17.33;;;6.30;99.90;;;;;;5090939;28;20118;-50
2021/03/17 02:08:25;;;;;;;23.77;16.33;;;6.30;99.90;;;;;;5091152;28;20185;-50
2021/03/17 02:10:51;;;;;;;22.08;16.33;;;6.20;99.90;;;;;;5091020;28;20073;-51
2021/03/17 02:13:36;;;;;;;21.73;16.13;;;6.20;99.90;;;;;;5090831;28;20028;-52
2021/03/17 02:16:24;;;;;;;23.15;16.95;;;6.20;99.90;;;;;;5072391;28;20020;-50
2021/03/17 02:19:04;;;;;;;20.02;15.75;;;6.20;99.90;;;;;;5075185;28;20063;-52
2021/03/17 02:21:58;;;;;;;20.33;15.57;;;6.20;99.90;;;;;;5091174;28;20397;-51
2021/03/17 02:24:38;;;;;;;25.95;17.95;;;6.10;99.90;;;;;;5090724;28;20374;-48
2021/03/17 02:27:23;;;;;;;23.85;16.83;;;6.10;99.90;;;;;;5090896;28;20048;-52
2021/03/17 02:30:13;;;;;;;21.38;15.52;;;6.20;99.90;;;;;;5090575;28;20036;-51
2021/03/17 02:33:01;;;;;;;23.77;15.63;;;6.20;99.90;;;;;;5090600;28;20490;-49
2021/03/17 02:35:30;;;;;;;24.23;16.52;;;6.10;99.90;;;;;;5072618;28;20077;-49
2021/03/17 02:37:58;;;;;;;22.73;16.33;;;6.20;99.90;;;;;;5090840;28;20481;-49
2021/03/17 02:40:36;;;;;;;23.85;16.65;;;6.20;99.90;;;;;;5090683;28;20067;-50
2021/03/17 02:43:11;;;;;;;21.13;15.57;;;6.20;99.90;;;;;;5090332;28;20020;-52
2021/03/17 02:45:40;;;;;;;21.73;15.40;;;6.30;99.90;;;;;;5090537;28;20501;-48
2021/03/17 02:48:10;;;;;;;22.65;16.20;;;6.30;99.90;;;;;;5090696;28;20503;-50
2021/03/17 02:50:39;;;;;;;23.83;18.05;;;6.30;99.90;;;;;;5090645;28;20034;-51
2021/03/17 02:53:08;;;;;;;20.00;15.98;;;6.30;99.90;;;;;;5090369;28;20048;-52
2021/03/17 02:55:38;;;;;;;26.48;17.30;;;6.30;99.90;;;;;;5090534;28;20028;-48
2021/03/17 02:58:05;;;;;;;22.00;16.08;;;6.30;99.90;;;;;;5090458;28;20055;-48
2021/03/17 03:00:31;;;;;;;22.90;16.20;;;6.30;99.90;;;;;;5090536;28;20442;-52
2021/03/17 03:02:59;;;;;;;29.95;16.85;;;6.20;99.90;;;;;;5090460;28;20107;-48
2021/03/17 03:05:27;;;;;;;22.65;16.73;;;6.10;99.90;;;;;;5090575;28;20032;-48
2021/03/17 03:07:55;;;;;;;23.73;16.83;;;6.10;99.90;;;;;;5090769;28;20028;-49
2021/03/17 03:10:22;;;;;;;22.02;15.93;;;6.00;99.90;;;;;;5090439;28;20030;-50
2021/03/17 03:12:49;;;;;;;25.70;17.90;;;5.90;99.90;;;;;;5090184;28;20447;-48
2021/03/17 03:15:17;;;;;;;26.73;19.10;;;5.90;99.90;;;;;;5090424;28;20586;-51
2021/03/17 03:17:43;;;;;;;25.95;17.92;;;6.00;99.90;;;;;;5090647;28;20028;-48
2021/03/17 03:20:10;;;;;;;25.30;17.70;;;6.00;99.90;;;;;;5090339;28;20613;-51
2021/03/17 03:22:39;;;;;;;22.90;16.77;;;6.00;99.90;;;;;;5090047;28;20028;-48
2021/03/17 03:25:05;;;;;;;25.08;17.30;;;5.90;99.90;;;;;;5089939;28;20028;-51
2021/03/17 03:27:34;;;;;;;26.30;17.17;;;5.90;99.90;;;;;;5090253;28;20016;-48
2021/03/17 03:30:02;;;;;;;23.98;18.13;;;6.10;99.90;;;;;;5090294;28;20035;-49
2021/03/17 03:32:27;;;;;;;23.02;16.45;;;6.00;99.90;;;;;;5090119;28;20199;-52
2021/03/17 03:34:53;;;;;;;21.38;16.27;;;6.00;99.90;;;;;;5090197;28;20077;-51
2021/03/17 03:37:18;;;;;;;24.13;17.30;;;6.00;99.90;;;;;;5090097;28;20028;-49
2021/03/17 03:39:44;;;;;;;27.45;18.50;;;6.00;99.90;;;;;;5071991;28;20034;-53
2021/03/17 03:42:10;;;;;;;26.08;17.63;;;6.00;99.90;;;;;;5075768;28;20473;-51
2021/03/17 03:44:35;;;;;;;25.65;19.05;;;6.00;99.90;;;;;;5094479;28;20028;-50
2021/03/17 03:47:01;;;;;;;24.55;17.20;;;6.10;99.90;;;;;;5093956;28;20096;-48
2021/03/17 03:49:27;;;;;;;25.00;17.55;;;6.10;99.90;;;;;;5093918;28;20028;-47
2021/03/17 03:52:08;;;;;;;26.63;18.02;;;6.10;99.90;;;;;;5093764;28;20032;-47
2021/03/17 03:54:47;;;;;;;25.67;17.98;;;6.10;99.90;;;;;;5093694;28;20048;-52
2021/03/17 03:57:27;;;;;;;21.73;16.13;;;6.10;99.90;;;;;;5094008;28;20507;-48
2021/03/17 04:00:00;;;;;;;26.00;17.42;;;6.00;99.90;;;;;;5093741;28;20073;-50
2021/03/17 04:02:33;;;;;;;25.83;15.95;;;6.00;99.90;;;;;;5075445;28;20081;-49
2021/03/17 04:05:01;;;;;;;22.75;16.02;;;6.00;99.90;;;;;;5093641;28;20048;-49
2021/03/17 04:07:29;;;;;;;23.23;16.65;;;5.90;99.90;;;;;;5075542;28;20389;-50
2021/03/17 04:10:06;;;;;;;24.15;15.80;;;5.90;99.90;;;;;;5093556;28;20120;-49
2021/03/17 04:12:36;;;;;;;22.48;16.08;;;5.90;99.90;;;;;;5093463;28;20378;-50
2021/03/17 04:15:03;;;;;;;20.80;15.63;;;5.80;99.90;;;;;;5093292;28;20020;-50
2021/03/17 04:17:45;;;;;;;20.35;15.18;;;5.90;99.90;;;;;;5093273;28;20032;-53
2021/03/17 04:20:16;;;;;;;23.67;16.17;;;5.90;99.90;;;;;;5093250;28;20119;-51
2021/03/17 04:22:44;;;;;;;22.40;15.75;;;5.90;99.90;;;;;;5093123;28;20020;-52
2021/03/17 04:25:13;;;;;;;21.58;15.90;;;5.90;99.90;;;;;;5093171;28;20023;-54
2021/03/17 04:27:43;;;;;;;22.20;15.52;;;5.90;99.90;;;;;;5093093;28;20071;-53
2021/03/17 04:30:10;;;;;;;21.38;15.30;;;5.90;99.90;;;;;;5093343;28;20421;-53
2021/03/17 04:32:38;;;;;;;23.25;15.63;;;5.80;99.90;;;;;;5093389;28;20517;-49
2021/03/17 04:35:06;;;;;;;20.50;15.57;;;5.80;99.90;;;;;;5092967;28;20043;-52
2021/03/17 04:37:33;;;;;;;20.35;14.13;;;5.90;99.90;;;;;;5093062;28;20051;-52
2021/03/17 04:40:01;;;;;;;20.33;15.18;;;5.90;99.90;;;;;;5092802;28;20393;-50
2021/03/17 04:42:27;;;;;;;23.40;13.73;;;5.90;99.90;;;;;;5093139;28;20027;-49
2021/03/17 04:44:54;;;;;;;20.55;14.27;;;5.80;99.90;;;;;;5092634;28;20031;-53
2021/03/17 04:47:20;;;;;;;18.85;13.57;;;5.70;99.90;;;;;;5092915;28;20020;-50
2021/03/17 04:49:47;;;;;;;19.92;14.35;;;5.70;99.90;;;;;;5092776;28;20028;-51
2021/03/17 04:52:13;;;;;;;20.63;15.43;;;5.70;99.90;;;;;;5092405;28;20262;-51
2021/03/17 04:54:39;;;;;;;22.02;14.05;;;5.80;99.90;;;;;;5092268;28;20027;-53
2021/03/17 04:57:10;;;;;;;20.73;15.18;;;5.70;99.90;;;;;;5092922;28;20021;-53
2021/03/17 04:59:36;;;;;;;19.95;15.15;;;5.70;99.90;;;;;;5092521;28;20060;-51
2021/03/17 05:02:03;;;;;;;20.27;13.38;;;5.60;99.90;;;;;;5092742;28;20505;-49
2021/03/17 05:04:29;;;;;;;18.08;13.32;;;5.60;99.90;;;;;;5092567;28;20024;-51
2021/03/17 05:06:56;;;;;;;21.25;14.82;;;5.60;99.90;;;;;;5092520;28;20039;-52
2021/03/17 05:09:23;;;;;;;18.05;13.10;;;5.70;99.90;;;;;;5092534;28;20043;-52
2021/03/17 05:11:50;;;;;;;22.17;13.88;;;5.70;99.90;;;;;;5092689;28;20119;-49
2021/03/17 05:14:15;;;;;;;18.95;13.80;;;5.80;99.90;;;;;;5074028;28;20039;-50
2021/03/17 05:16:42;;;;;;;17.05;12.70;;;5.70;99.90;;;;;;5091483;28;20028;-49
2021/03/17 05:19:09;;;;;;;18.58;14.07;;;5.70;99.90;;;;;;5092274;28;20031;-49
2021/03/17 05:21:35;;;;;;;17.58;12.77;;;5.70;99.90;;;;;;5091839;28;20059;-51
2021/03/17 05:24:00;;;;;;;17.83;13.40;;;5.70;99.90;;;;;;5073318;28;20416;-55
2021/03/17 05:26:27;;;;;;;19.42;12.88;;;5.60;99.90;;;;;;5090358;28;20040;-51
2021/03/17 05:28:54;;;;;;;18.00;12.68;;;5.60;99.90;;;;;;5071792;28;20036;-55
2021/03/17 05:31:22;;;;;;;19.83;14.02;;;5.60;99.90;;;;;;5071827;28;20074;-52
2021/03/17 05:33:49;;;;;;;19.67;13.63;;;5.60;99.90;;;;;;5072317;28;20020;-49
2021/03/17 05:36:14;;;;;;;20.17;12.27;;;5.60;99.90;;;;;;5091892;28;20109;-50
2021/03/17 05:38:40;;;;;;;17.45;13.02;;;5.60;99.90;;;;;;5090147;28;20465;-52
2021/03/17 05:41:05;;;;;;;17.70;12.90;;;5.60;99.90;;;;;;5091011;28;20099;-50
2021/03/17 05:43:33;;;;;;;18.33;13.15;;;5.50;99.90;;;;;;5061618;28;20060;-53
2021/03/17 05:46:06;;;;;;;17.85;13.13;;;5.60;99.90;;;;;;5091637;28;20527;-54
2021/03/17 05:48:32;;;;;;;19.63;13.82;;;5.50;99.90;;;;;;5084046;28;20024;-52
2021/03/17 05:50:59;;;;;;;21.98;14.27;;;5.50;99.90;;;;;;5078699;28;20016;-51
2021/03/17 05:53:26;;;;;;;18.60;12.57;;;5.50;99.90;;;;;;5086788;28;20020;-53
2021/03/17 05:55:52;;;;;;;15.20;12.10;;;5.50;99.90;;;;;;5090019;28;20039;-51
2021/03/17 05:58:21;;;;;;;19.30;13.02;;;5.50;99.90;;;;;;5089458;28;20058;-52
2021/03/17 06:00:46;;;;;;;17.52;12.68;;;5.40;99.90;;;;;;5090373;28;20563;-53
2021/03/17 06:03:12;;;;;;;17.10;12.43;;;5.40;99.90;;;;;;5089108;28;20028;-57
2021/03/17 06:05:38;;;;;;;17.90;13.65;;;5.50;99.90;;;;;;5089830;28;20060;-58
2021/03/17 06:08:13;;;;;;;19.83;12.93;;;5.50;99.90;;;;;;5089838;28;20074;-59
2021/03/17 06:10:39;;;;;;;22.25;13.55;;;5.50;99.90;;;;;;5090139;28;20482;-54
2021/03/17 06:13:09;;;;;;;19.55;14.57;;;5.60;99.90;;;;;;5089658;28;20016;-56
2021/03/17 06:15:37;;;;;;;18.67;14.15;;;5.70;99.90;;;;;;5076867;28;20428;-58
2021/03/17 06:18:22;;;;;;;18.67;12.60;;;5.70;99.90;;;;;;5080827;28;20038;-53
2021/03/17 06:20:48;;;;;;;18.03;12.80;;;5.70;99.90;;;;;;5052196;28;20052;-54
2021/03/17 06:23:14;;;;;;;19.67;13.45;;;5.60;99.90;;;;;;5078115;28;20052;-54
2021/03/17 06:25:44;;;;;;;18.83;12.70;;;5.60;99.90;;;;;;5090241;28;20020;-57
2021/03/17 06:28:11;;;;;;;17.27;12.68;;;5.60;99.90;;;;;;5089297;28;20500;-57
2021/03/17 06:30:37;;;;;;;18.45;13.25;;;5.70;99.90;;;;;;5087039;28;20067;-50
2021/03/17 06:33:03;;;;;;;17.48;13.57;;;5.70;99.90;;;;;;5089973;28;20063;-53
2021/03/17 06:39:07;;;;;;;23.40;14.05;;;5.70;99.90;;;;;;5080539;28;20157;-52
2021/03/17 06:41:51;;;;;;;16.25;12.35;;;5.80;99.90;;;;;;5087306;28;20016;-48
2021/03/17 06:44:24;;;;;;;20.92;13.88;;;5.80;99.90;;;;;;5069255;28;20017;-48
2021/03/17 06:47:18;;;;;;;22.13;13.90;;;5.90;99.90;;;;;;5056119;28;20031;-48
2021/03/17 06:49:53;;;;;;;23.40;14.75;;;6.00;99.90;;;;;;5089821;28;20056;-51
2021/03/17 06:52:38;;;;;;;;;;;6.20;99.90;;;;;;5071506;28;20397;-51
2021/03/17 06:55:12;;;;;;;25.10;14.98;;;6.10;99.90;;;;;;5090186;28;20357;-53
2021/03/17 06:57:44;;;;;;;22.23;13.85;;;6.10;99.90;;;;;;5086418;28;20077;-50
2021/03/17 07:00:26;;;;;;;23.48;14.82;;;6.10;99.90;;;;;;5070430;28;20032;-47
2021/03/17 07:03:05;;;;;;;20.90;14.07;;;6.10;99.90;;;;;;5077430;28;20380;-50
2021/03/17 07:05:47;;;;;;;23.52;15.20;;;6.10;99.90;;;;;;5089254;28;20078;-51
2021/03/17 07:08:28;;;;;;;24.65;13.63;;;6.10;99.90;;;;;;5089655;28;20021;-52
2021/03/17 07:10:59;;;;;;;21.15;14.15;;;5.90;99.90;;;;;;5087441;28;20025;-55
2021/03/17 07:13:25;;;;;;;22.75;14.45;;;5.90;99.90;;;;;;5072900;28;20016;-54
2021/03/17 07:15:56;;;;;;;19.50;13.55;;;5.90;99.90;;;;;;5065345;28;20028;-55
2021/03/17 07:18:23;;;;;;;19.02;13.05;;;5.90;99.90;;;;;;5093837;28;20024;-53
2021/03/17 07:21:04;;;;;;;21.25;14.93;;;6.00;99.90;;;;;;5093138;28;20450;-46
2021/03/17 07:23:34;;;;;;;22.48;14.23;;;6.10;99.90;;;;;;5102273;28;20020;-49
2021/03/17 07:26:19;;;;;;;26.80;13.95;;;6.20;99.90;;;;;;5090366;28;20050;-51
2021/03/17 07:28:48;;;;;;;19.65;13.05;;;6.40;99.90;;;;;;5092399;28;20028;-52
2021/03/17 07:31:14;;;;;;;21.40;13.18;;;6.40;99.90;;;;;;5093023;28;20024;-54
2021/03/17 07:33:40;;;;;;;21.40;13.02;;;6.30;99.90;;;;;;5091702;28;20020;-48
2021/03/17 07:36:06;;;;;;;20.33;13.60;;;6.20;99.90;;;;;;5092621;28;20580;-52
2021/03/17 07:38:32;;;;;;;25.10;14.23;;;6.30;99.90;;;;;;5092827;28;20386;-65
2021/03/17 07:40:58;;;;;;;21.35;13.40;;;6.20;99.90;;;;;;5069828;28;20032;-53
2021/03/17 07:43:26;;;;;;;19.60;13.35;;;6.30;99.90;;;;;;5091348;28;20027;-55
2021/03/17 07:45:54;;;;;;;23.05;14.77;;;6.30;99.90;;;;;;5088559;28;20016;-49
2021/03/17 07:48:21;;;;;;;24.33;13.45;;;6.40;99.90;;;;;;5091678;28;20074;-52
2021/03/17 07:50:47;;;;;;;19.38;13.60;;;6.50;99.90;;;;;;5080295;28;20016;-49
2021/03/17 07:53:18;;;;;;;22.88;13.98;;;6.50;99.90;;;;;;5092989;28;20047;-54
2021/03/17 07:55:45;;;;;;;21.23;13.25;;;6.60;99.90;;;;;;5076069;28;20075;-54
2021/03/17 07:58:15;;;;;;;19.38;13.48;;;6.50;99.90;;;;;;5073663;28;20056;-47
2021/03/17 08:00:42;;;;;;;21.20;13.68;;;6.60;99.90;;;;;;5074471;28;20410;-46
2021/03/17 08:03:11;;;;;;;18.92;13.35;;;6.50;99.90;;;;;;5081933;28;20057;-47
2021/03/17 08:05:37;;;;;;;19.77;13.38;;;6.60;99.90;;;;;;5093408;28;20035;-47
2021/03/17 08:08:08;;;;;;;21.83;12.93;;;6.60;99.90;;;;;;5093514;28;20024;-48
2021/03/17 08:10:39;;;;;;;21.13;11.88;;;6.60;99.90;;;;;;5093572;28;20020;-47
2021/03/17 08:13:07;;;;;;;20.67;12.23;;;6.60;99.90;;;;;;5092515;28;20024;-50
2021/03/17 08:15:33;;;;;;;16.08;10.93;;;6.60;99.90;;;;;;5093204;28;20115;-49
2021/03/17 08:17:58;;;;;;;17.73;11.38;;;6.70;99.90;;;;;;5093298;28;20111;-48
2021/03/17 08:20:29;;;;;;;17.48;10.93;;;6.70;99.90;;;;;;5093088;28;20662;-48
2021/03/17 08:22:56;;;;;;;15.65;10.85;;;6.70;99.90;;;;;;5092914;28;20031;-50
2021/03/17 08:25:45;;;;;;;16.92;10.55;;;6.80;99.90;;;;;;5092730;28;20388;-47
2021/03/17 08:28:19;;;;;;;14.43;10.18;;;7.00;99.90;;;;;;5090688;28;20477;-51
2021/03/17 08:30:45;;;;;;;22.10;10.27;;;7.10;99.90;;;;;;5076765;28;20398;-50
2021/03/17 08:33:11;;;;;;;15.70;11.57;;;6.90;99.90;;;;;;5088080;28;20020;-51
2021/03/17 08:35:59;;;;;;;17.52;11.20;;;6.90;99.90;;;;;;5091926;28;20027;-54
2021/03/17 08:38:42;;;;;;;17.88;11.55;;;7.00;99.90;;;;;;5090882;28;20102;-52
2021/03/17 08:41:07;;;;;;;16.67;11.57;;;7.00;99.90;;;;;;5071543;28;20077;-51
2021/03/17 08:43:36;;;;;;;17.42;11.93;;;6.90;99.90;;;;;;5083618;28;20036;-52
2021/03/17 08:46:06;;;;;;;17.60;12.00;;;6.90;99.90;;;;;;5091125;28;20024;-49
2021/03/17 08:48:54;;;;;;;17.00;12.15;;;6.90;99.90;;;;;;5073524;28;20218;-52
2021/03/17 08:52:00;;;;;;;17.55;11.95;;;6.90;99.90;;;;;;5073910;28;20020;-51
2021/03/17 08:54:35;;;;;;;15.77;10.63;;;7.00;99.90;;;;;;5070111;28;20495;-51
2021/03/17 08:57:01;;;;;;;16.60;12.35;;;7.00;99.90;;;;;;5079427;28;20051;-50
2021/03/17 08:59:47;;;;;;;14.82;10.15;;;7.10;99.90;;;;;;5090349;28;20035;-48
2021/03/17 09:02:29;;;;;;;14.13;10.07;;;7.10;99.90;;;;;;5084806;28;20036;-50
2021/03/17 09:05:03;;;;;;;15.05;10.50;;;7.20;99.90;;;;;;5071661;28;20028;-48
2021/03/17 09:07:34;;;;;;;11.73;9.13;;;7.20;99.90;;;;;;5072203;28;20440;-53
2021/03/17 09:10:11;;;;;;;15.23;8.68;;;7.10;99.90;;;;;;5085643;28;20028;-50
2021/03/17 09:12:37;;;;;;;12.20;9.23;;;7.10;99.90;;;;;;5088990;28;20044;-49
2021/03/17 09:15:14;;;;;;;13.45;9.07;;;7.00;99.90;;;;;;5080202;28;20028;-48
2021/03/17 09:17:52;;;;;;;12.65;9.15;;;7.00;99.90;;;;;;5074116;28;20491;-49
2021/03/17 09:20:28;;;;;;;14.15;9.20;;;7.10;99.90;;;;;;5071714;28;20498;-50
2021/03/17 09:23:10;;;;;;;13.45;7.80;;;7.10;99.90;;;;;;5072534;28;20044;-55
2021/03/17 09:25:41;;;;;;;9.27;7.30;;;7.20;99.90;;;;;;5071777;28;20092;-52
2021/03/17 09:28:12;;;;;;;10.05;7.70;;;7.10;99.90;;;;;;5071904;28;20024;-50
2021/03/17 09:30:57;;;;;;;11.13;7.70;;;7.10;99.90;;;;;;5077930;28;20396;-49
2021/03/17 09:33:40;;;;;;;11.73;8.38;;;7.30;99.90;;;;;;5077197;28;20082;-50
2021/03/17 09:36:13;;;;;;;13.15;9.15;;;7.70;99.90;;;;;;5073379;28;20039;-53
2021/03/17 09:38:47;;;;;;;11.13;8.60;;;7.70;99.90;;;;;;5079812;28;20043;-49
2021/03/17 09:41:24;;;;;;;11.05;8.30;;;7.90;99.90;;;;;;5091464;28;20024;-50
2021/03/17 09:43:52;;;;;;;10.43;8.38;;;7.80;99.90;;;;;;5078074;28;20497;-52
2021/03/17 09:46:41;;;;;;;10.48;7.53;;;7.90;99.90;;;;;;5071555;28;20405;-50
2021/03/17 09:49:15;;;;;;;8.02;7.13;;;7.90;99.90;;;;;;5086847;28;20093;-52
2021/03/17 09:51:47;;;;;;;10.48;7.45;;;7.90;99.90;;;;;;5088619;28;20028;-54
2021/03/17 09:54:15;;;;;;;10.27;8.07;;;8.40;99.90;;;;;;5076448;28;20035;-51
2021/03/17 09:56:51;;;;;;;14.43;9.25;;;9.20;99.80;;;;;;5074566;28;20504;-53
2021/03/17 09:59:18;;;;;;;17.40;8.73;;;10.00;98.20;;;;;;5080354;28;20032;-51
2021/03/17 10:02:25;;;;;;;11.02;8.88;;;10.60;96.90;;;;;;5088530;28;20473;-47
2021/03/17 10:04:53;;;;;;;15.35;9.70;;;10.40;96.60;;;;;;4970395;28;20031;-51
2021/03/17 10:07:20;;;;;;;12.35;9.77;;;10.00;97.60;;;;;;4968470;28;20034;-54
2021/03/17 10:09:47;;;;;;;11.63;9.30;;;9.90;98.20;;;;;;5024413;28;20506;-50
2021/03/17 10:12:15;;;;;;;10.85;7.43;;;10.40;97.70;;;;;;5076608;28;20067;-53
2021/03/17 10:15:00;;;;;;;9.85;7.78;;;10.10;96.30;;;;;;5080672;28;20020;-53
2021/03/17 10:17:28;;;;;;;8.77;7.88;;;9.90;97.00;;;;;;5085271;28;20067;-52
2021/03/17 10:20:00;;;;;;;7.25;6.55;;;10.00;97.60;;;;;;5089478;28;20043;-54
2021/03/17 10:22:29;;;;;;;5.47;4.97;;;10.00;97.70;;;;;;5089676;28;20016;-53
2021/03/17 10:24:56;;;;;;;5.88;5.10;;;10.30;96.00;;;;;;5074737;28;20034;-47
2021/03/17 10:27:25;;;;;;;5.18;4.22;;;10.50;94.90;;;;;;5079477;28;20074;-48
2021/03/17 10:29:52;;;;;;;5.75;4.65;;;11.20;94.10;;;;;;5089944;28;20024;-50
2021/03/17 10:32:21;;;;;;;6.78;6.07;;;11.80;92.00;;;;;;5090050;28;20101;-51
2021/03/17 10:34:46;;;;;;;6.88;6.28;;;12.20;92.40;;;;;;5089358;28;20028;-51
2021/03/17 10:37:14;;;;;;;8.10;6.03;;;12.10;92.10;;;;;;5090116;28;20473;-56
2021/03/17 10:39:41;;;;;;;7.40;6.53;;;11.60;91.80;;;;;;5089544;28;20042;-57
2021/03/17 10:42:42;;;;;;;7.45;6.22;;;11.10;93.10;;;;;;5068265;28;20026;-60
2021/03/17 10:45:11;;;;;;;8.93;6.20;;;10.80;93.90;;;;;;5071910;28;20064;-56
2021/03/17 10:47:39;;;;;;;7.35;6.03;;;10.60;94.20;;;;;;5084381;28;20199;-61
2021/03/17 10:50:32;;;;;;;5.40;4.90;;;10.40;94.70;;;;;;5089125;28;20020;-56
2021/03/17 10:52:57;;;;;;;4.65;4.25;;;10.00;94.10;;;;;;5062559;28;20079;-52
2021/03/17 10:55:26;;;;;;;5.35;4.85;;;9.50;95.10;;;;;;5089323;28;20446;-54
2021/03/17 10:57:53;;;;;;;5.15;3.90;;;9.20;96.30;;;;;;5087499;28;20028;-57
2021/03/17 11:00:21;;;;;;;4.53;4.13;;;9.10;96.50;;;;;;5071210;28;20302;-55
2021/03/17 11:02:47;;;;;;;9.07;7.00;;;8.80;97.20;;;;;;5089045;28;20020;-51
2021/03/17 11:05:20;;;;;;;11.07;6.88;;;8.20;98.30;;;;;;5089137;28;20450;-55
2021/03/17 11:08:05;;;;;;;10.55;6.72;;;8.00;99.00;;;;;;5067698;28;20111;-53
2021/03/17 11:10:46;;;;;;;6.70;5.95;;;7.70;99.10;;;;;;5070095;28;20555;-59
2021/03/17 11:13:17;;;;;;;8.02;6.50;;;7.20;99.80;;;;;;5069019;28;20306;-54
2021/03/17 11:15:43;;;;;;;7.82;5.88;;;6.90;99.90;;;;;;5071241;28;20101;-54
2021/03/17 11:18:10;;;;;;;10.32;6.15;;;6.50;99.90;;;;;;5089194;28;20024;-53
2021/03/17 11:20:42;;;;;;;9.90;5.95;;;6.00;99.90;;;;;;5087295;28;20065;-56
2021/03/17 11:23:19;;;;;;;8.25;6.00;;;5.70;99.90;;;;;;5067590;28;20138;-54
2021/03/17 11:25:46;;;;;;;9.10;6.40;;;5.50;99.90;;;;;;5069118;28;20096;-55
2021/03/17 11:28:17;;;;;;;11.82;6.63;;;5.50;99.90;;;;;;5084012;28;20024;-56
2021/03/17 11:30:49;;;;;;;8.57;6.72;;;5.60;99.90;;;;;;5089308;28;20111;-50
2021/03/17 11:33:15;;;;;;;8.25;6.18;;;5.70;99.90;;;;;;5089034;28;20023;-50
2021/03/17 11:35:42;;;;;;;13.32;7.25;;;5.70;99.90;;;;;;5089181;28;20028;-48
2021/03/17 11:38:09;;;;;;;11.52;8.07;;;5.60;99.90;;;;;;5079126;28;20478;-52
2021/03/17 11:40:35;;;;;;;11.93;8.60;;;5.70;99.90;;;;;;5084117;28;20089;-55
2021/03/17 11:43:10;;;;;;;12.55;8.35;;;5.70;99.90;;;;;;5070827;28;20024;-54
2021/03/17 11:45:36;;;;;;;10.27;6.25;;;5.20;99.90;;;;;;5085324;28;20036;-49
2021/03/17 11:48:03;;;;;;;8.25;5.18;;;5.10;99.90;;;;;;5078923;28;20020;-54
2021/03/17 11:50:28;;;;;;;4.88;2.22;;;4.40;99.90;;;;;;5089004;28;20512;-57
2021/03/17 11:52:54;;;;;;;2.67;1.60;;;4.30;99.90;;;;;;5088779;28;20024;-50
2021/03/17 11:55:21;;;;;;;2.72;1.00;;;4.20;99.90;;;;;;5089086;28;20119;-49
2021/03/17 11:57:47;;;;;;;5.63;1.48;;;3.90;99.90;;;;;;5089005;28;20028;-45
2021/03/17 12:00:14;;;;;;;5.57;1.83;;;4.00;99.90;;;;;;5089926;28;20027;-45
2021/03/17 12:02:39;;;;;;;5.00;1.65;;;4.00;99.90;;;;;;5090693;28;20053;-47
2021/03/17 12:05:06;;;;;;;3.72;1.95;;;4.20;99.90;;;;;;5092626;28;20028;-48
2021/03/17 12:07:32;;;;;;;2.20;1.60;;;4.40;99.90;;;;;;5091299;28;20135;-50
2021/03/17 12:09:57;;;;;;;3.05;1.40;;;4.40;99.90;;;;;;5093441;28;20036;-51
2021/03/17 12:12:23;;;;;;;3.22;1.98;;;4.50;99.90;;;;;;5089379;28;20039;-54
2021/03/17 12:14:49;;;;;;;5.32;2.10;;;4.60;99.90;;;;;;5072226;28;20390;-53
2021/03/17 12:17:14;;;;;;;3.75;2.40;;;4.70;99.90;;;;;;5058860;28;20033;-52
2021/03/17 12:19:40;;;;;;;1.55;1.40;;;4.80;99.90;;;;;;5080871;28;20028;-48
2021/03/17 12:22:05;;;;;;;1.30;1.30;;;4.80;99.90;;;;;;5091729;28;20028;-53
2021/03/17 12:24:31;;;;;;;2.85;1.75;;;4.70;99.90;;;;;;5092019;28;20028;-60
2021/03/17 12:26:56;;;;;;;2.45;1.70;;;4.80;99.90;;;;;;5076232;28;20040;-60
2021/03/17 12:29:22;;;;;;;3.95;1.30;;;4.80;99.90;;;;;;5088700;28;20028;-57
2021/03/17 12:31:47;;;;;;;2.47;1.42;;;4.80;99.90;;;;;;5090522;28;20047;-51
2021/03/17 12:34:13;;;;;;;3.15;1.40;;;4.80;99.90;;;;;;5091749;28;20020;-52
2021/03/17 12:36:39;;;;;;;3.60;1.58;;;4.80;99.90;;;;;;5091759;28;20024;-49
2021/03/17 12:39:05;;;;;;;3.30;1.42;;;4.80;99.90;;;;;;5091690;28;20020;-50
2021/03/17 12:41:30;;;;;;;5.15;1.48;;;5.00;99.90;;;;;;5092037;28;20028;-48
2021/03/17 12:43:56;;;;;;;3.03;1.35;;;5.10;99.90;;;;;;5091356;28;20035;-50
2021/03/17 12:46:21;;;;;;;3.47;1.83;;;5.20;99.90;;;;;;5091646;28;20036;-53
2021/03/17 12:48:47;;;;;;;3.35;1.55;;;5.30;99.90;;;;;;5091662;28;20047;-48
2021/03/17 12:51:12;;;;;;;3.15;1.60;;;5.50;99.90;;;;;;5091806;28;20039;-51
2021/03/17 12:53:38;;;;;;;2.17;1.50;;;5.80;99.90;;;;;;5091331;28;20028;-45
2021/03/17 12:56:05;;;;;;;5.55;1.58;;;6.00;99.90;;;;;;5091641;28;20020;-47
2021/03/17 12:58:31;;;;;;;1.52;1.30;;;6.10;99.90;;;;;;5090829;28;20024;-51